createdAt,value
2024-02-14T00:04:28.520Z,100.00
2024-02-14T00:09:32.177Z,100.00
2024-02-14T00:14:37.119Z,100.00
2024-02-14T00:19:40.968Z,100.00
2024-02-14T00:24:44.793Z,100.00
2024-02-14T00:29:49.809Z,100.00
2024-02-14T00:34:53.543Z,100.00
2024-02-14T00:39:59.206Z,100.00
2024-02-14T00:45:04.456Z,100.00
2024-02-14T00:50:10.068Z,100.00
2024-02-14T00:55:13.708Z,100.00
2024-02-14T01:00:19.027Z,100.00
2024-02-14T01:05:22.655Z,100.00
2024-02-14T01:10:26.306Z,100.00
2024-02-14T01:15:31.509Z,100.00
2024-02-14T01:20:35.106Z,100.00
2024-02-14T01:25:38.757Z,100.00
2024-02-14T01:30:43.542Z,100.00
2024-02-14T01:35:47.013Z,100.00
2024-02-14T01:40:50.557Z,100.00
2024-02-14T01:45:55.656Z,100.00
2024-02-14T01:51:00.666Z,100.00
2024-02-14T01:56:05.567Z,100.00
2024-02-14T02:01:11.340Z,100.00
2024-02-14T02:06:16.145Z,100.00
2024-02-14T02:11:19.968Z,100.00
2024-02-14T02:16:44.862Z,100.00
2024-02-14T02:22:09.149Z,100.00
2024-02-14T02:27:22.256Z,100.00
2024-02-14T02:32:45.824Z,100.00
2024-02-14T02:37:51.794Z,100.00
2024-02-14T02:43:04.679Z,100.00
2024-02-14T02:48:28.037Z,98.96
2024-02-14T02:53:36.445Z,97.93
2024-02-14T02:59:03.241Z,97.72
2024-02-14T03:04:06.683Z,96.28
2024-02-14T03:09:30.190Z,96.96
2024-02-14T03:14:54.973Z,95.84
2024-02-14T03:20:17.060Z,95.92
2024-02-14T03:25:22.535Z,94.90
2024-02-14T03:30:37.257Z,94.34
2024-02-14T03:35:40.539Z,95.43
2024-02-14T03:40:47.032Z,94.61
2024-02-14T03:45:52.831Z,96.16
2024-02-14T03:50:56.428Z,96.86
2024-02-14T03:55:59.787Z,97.54
2024-02-14T04:01:04.546Z,96.69
2024-02-14T04:06:08.308Z,96.33
2024-02-14T04:11:14.559Z,96.66
2024-02-14T04:16:21.706Z,96.71
2024-02-14T04:21:31.052Z,96.17
2024-02-14T04:26:34.689Z,95.43
2024-02-14T04:31:39.580Z,95.51
2024-02-14T04:36:43.898Z,94.93
2024-02-14T04:41:54.557Z,94.42
2024-02-14T04:47:06.343Z,93.47
2024-02-14T04:52:09.835Z,93.09
2024-02-14T04:57:13.802Z,93.73
2024-02-14T05:02:18.622Z,94.72
2024-02-14T05:07:22.077Z,95.25
2024-02-14T05:12:25.628Z,96.51
2024-02-14T05:17:31.582Z,98.49
2024-02-14T05:22:35.096Z,100.00
2024-02-14T05:27:39.195Z,100.00
2024-02-14T05:32:44.378Z,100.00
2024-02-14T05:37:50.743Z,100.00
2024-02-14T05:42:54.162Z,100.00
2024-02-14T05:47:59.265Z,100.00
2024-02-14T05:53:03.836Z,100.00
2024-02-14T05:58:07.419Z,100.00
2024-02-14T06:03:12.492Z,100.00
2024-02-14T06:08:16.041Z,100.00
2024-02-14T06:13:20.166Z,100.00
2024-02-14T06:18:25.337Z,100.00
2024-02-14T06:23:30.437Z,100.00
2024-02-14T06:28:34.001Z,100.00
2024-02-14T06:33:41.896Z,100.00
2024-02-14T06:38:47.671Z,100.00
2024-02-14T06:43:51.410Z,100.00
2024-02-14T06:48:57.526Z,100.00
2024-02-14T06:54:01.330Z,100.00
2024-02-14T06:59:05.011Z,100.00
2024-02-14T07:04:09.865Z,100.00
2024-02-14T07:09:13.767Z,100.00
2024-02-14T07:14:17.249Z,100.00
2024-02-14T07:19:22.362Z,100.00
2024-02-14T07:24:25.965Z,100.00
2024-02-14T07:29:29.705Z,100.00
2024-02-14T07:34:34.868Z,100.00
2024-02-14T07:39:38.447Z,100.00
2024-02-14T07:44:42.098Z,100.00
2024-02-14T07:49:47.229Z,100.00
2024-02-14T07:54:54.202Z,100.00
2024-02-14T07:59:57.508Z,100.00
2024-02-14T08:05:02.472Z,100.00
2024-02-14T08:10:07.317Z,100.00
2024-02-14T08:15:11.568Z,100.00
2024-02-14T08:20:16.893Z,100.00
2024-02-14T08:25:33.801Z,100.00
2024-02-14T08:30:37.941Z,100.00
2024-02-14T08:35:43.908Z,100.00
2024-02-14T08:40:47.900Z,100.00
2024-02-14T08:45:52.814Z,100.00
2024-02-14T08:50:57.739Z,100.00
2024-02-14T08:56:01.311Z,100.00
2024-02-14T09:01:13.070Z,100.00
2024-02-14T09:06:20.643Z,100.00
2024-02-14T09:11:24.551Z,100.00
2024-02-14T09:16:28.062Z,100.00
2024-02-14T09:21:34.710Z,100.00
2024-02-14T09:26:39.532Z,100.00
2024-02-14T09:31:43.509Z,100.00
2024-02-14T09:36:50.941Z,100.00
2024-02-14T09:41:56.714Z,100.00
2024-02-14T09:47:01.165Z,100.00
2024-02-14T09:52:08.205Z,100.00
2024-02-14T09:57:13.237Z,100.00
2024-02-14T10:02:19.050Z,100.00
2024-02-14T10:07:24.289Z,100.00
2024-02-14T10:12:28.176Z,100.00
2024-02-14T10:17:32.028Z,100.00
2024-02-14T10:22:38.184Z,100.00
2024-02-14T10:27:42.290Z,100.00
2024-02-14T10:32:49.348Z,100.00
2024-02-14T10:38:01.940Z,98.40
2024-02-14T10:43:05.838Z,100.00
2024-02-14T10:48:14.328Z,100.00
2024-02-14T10:53:20.061Z,100.00
2024-02-14T10:58:26.660Z,100.00
2024-02-14T11:03:32.270Z,100.00
2024-02-14T11:08:38.371Z,100.00
2024-02-14T11:13:44.344Z,100.00
2024-02-14T11:18:51.480Z,100.00
2024-02-14T11:23:57.316Z,100.00
2024-02-14T11:29:27.456Z,100.00
2024-02-14T11:34:37.022Z,100.00
2024-02-14T11:39:43.741Z,100.00
2024-02-14T11:44:49.148Z,100.00
2024-02-14T11:49:53.808Z,100.00
2024-02-14T11:55:01.258Z,100.00
2024-02-14T12:00:06.357Z,100.00
2024-02-14T12:05:27.021Z,100.00
2024-02-14T12:10:33.927Z,100.00
2024-02-14T12:15:42.058Z,100.00
2024-02-14T12:20:46.621Z,100.00
2024-02-14T12:25:52.123Z,100.00
2024-02-14T12:30:58.072Z,100.00
2024-02-14T12:36:02.513Z,100.00
2024-02-14T12:41:08.272Z,99.68
2024-02-14T12:46:12.593Z,98.52
2024-02-14T12:51:18.396Z,96.08
2024-02-14T12:56:25.415Z,95.09
2024-02-14T13:01:29.848Z,93.16
2024-02-14T13:06:34.121Z,93.28
2024-02-14T13:11:40.519Z,92.31
2024-02-14T13:16:45.096Z,95.13
2024-02-14T13:21:49.830Z,97.72
2024-02-14T13:26:56.200Z,97.23
2024-02-14T13:32:01.981Z,96.60
2024-02-14T13:37:06.921Z,100.00
2024-02-14T13:42:13.367Z,98.87
2024-02-14T13:47:21.015Z,99.84
2024-02-14T13:52:25.820Z,97.39
2024-02-14T13:57:32.142Z,97.76
2024-02-14T14:02:38.326Z,97.81
2024-02-14T14:07:54.129Z,98.54
2024-02-14T14:13:05.237Z,99.53
2024-02-14T14:18:12.286Z,97.64
2024-02-14T14:23:16.623Z,100.00
2024-02-14T14:28:26.037Z,100.00
2024-02-14T14:33:31.928Z,98.47
2024-02-14T14:38:36.746Z,98.31
2024-02-14T14:43:42.163Z,98.03
2024-02-14T14:48:46.768Z,100.00
2024-02-14T14:53:51.153Z,100.00
2024-02-14T14:58:57.318Z,100.00
2024-02-14T15:04:01.629Z,100.00
2024-02-14T15:09:07.026Z,100.00
2024-02-14T15:14:12.471Z,100.00
2024-02-14T15:19:16.642Z,100.00
2024-02-14T15:24:21.873Z,100.00
2024-02-14T15:29:44.592Z,100.00
2024-02-14T15:34:48.514Z,100.00
2024-02-14T15:39:53.285Z,100.00
2024-02-14T15:45:01.601Z,100.00
2024-02-14T15:50:08.814Z,100.00
2024-02-14T15:55:12.786Z,100.00
2024-02-14T16:00:18.656Z,100.00
2024-02-14T16:05:22.663Z,100.00
2024-02-14T16:10:26.629Z,100.00
2024-02-14T16:15:32.256Z,100.00
2024-02-14T16:20:36.148Z,100.00
2024-02-14T16:25:40.011Z,100.00
2024-02-14T16:30:46.225Z,100.00
2024-02-14T16:35:50.563Z,100.00
2024-02-14T16:40:54.157Z,100.00
2024-02-14T16:45:59.377Z,100.00
2024-02-14T16:51:03.521Z,100.00
2024-02-14T16:56:08.898Z,100.00
2024-02-14T17:01:13.991Z,100.00
2024-02-14T17:06:26.329Z,100.00
2024-02-14T17:11:30.125Z,100.00
2024-02-14T17:16:35.606Z,100.00
2024-02-14T17:21:39.512Z,100.00
2024-02-14T17:26:43.690Z,100.00
2024-02-14T17:31:49.960Z,100.00
2024-02-14T17:36:53.828Z,100.00
2024-02-14T17:41:57.494Z,100.00
2024-02-14T17:47:02.814Z,100.00
2024-02-14T17:52:06.753Z,100.00
2024-02-14T17:57:10.769Z,100.00
2024-02-14T18:02:15.974Z,100.00
2024-02-14T18:07:20.511Z,100.00
2024-02-14T18:12:26.931Z,100.00
2024-02-14T18:17:32.176Z,100.00
2024-02-14T18:22:36.865Z,100.00
2024-02-14T18:27:41.169Z,100.00
2024-02-14T18:32:46.377Z,100.00
2024-02-14T18:37:50.569Z,100.00
2024-02-14T18:42:54.469Z,100.00
2024-02-14T18:47:59.939Z,100.00
2024-02-14T18:53:03.738Z,100.00
2024-02-14T18:58:07.650Z,100.00
2024-02-14T19:03:13.097Z,100.00
2024-02-14T19:08:17.105Z,100.00
2024-02-14T19:13:23.840Z,100.00
2024-02-14T19:18:29.012Z,100.00
2024-02-14T19:23:37.476Z,100.00
2024-02-14T19:28:41.553Z,100.00
2024-02-14T19:33:47.545Z,100.00
2024-02-14T19:38:52.186Z,100.00
2024-02-14T19:43:58.301Z,100.00
2024-02-14T19:49:03.860Z,100.00
2024-02-14T19:54:07.865Z,100.00
2024-02-14T19:59:14.485Z,100.00
2024-02-14T20:04:19.965Z,100.00
2024-02-14T20:09:23.746Z,100.00
2024-02-14T20:14:27.511Z,100.00
2024-02-14T20:19:32.819Z,100.00
2024-02-14T20:24:37.676Z,100.00
2024-02-14T20:29:43.833Z,100.00
2024-02-14T20:34:49.265Z,100.00
2024-02-14T20:39:53.267Z,100.00
2024-02-14T20:44:57.205Z,100.00
2024-02-14T20:50:02.539Z,100.00
2024-02-14T20:55:08.757Z,100.00
2024-02-14T21:00:13.232Z,100.00
2024-02-14T21:05:19.314Z,100.00
2024-02-14T21:10:24.096Z,100.00
2024-02-14T21:15:30.162Z,100.00
2024-02-14T21:20:36.224Z,100.00
2024-02-14T21:25:40.368Z,100.00
2024-02-14T21:30:44.237Z,100.00
2024-02-14T21:35:51.163Z,100.00
2024-02-14T21:40:56.431Z,100.00
2024-02-14T21:46:01.231Z,100.00
2024-02-14T21:51:10.517Z,100.00
2024-02-14T21:56:14.835Z,100.00
2024-02-14T22:01:19.734Z,100.00
2024-02-14T22:06:25.059Z,100.00
2024-02-14T22:11:28.809Z,100.00
2024-02-14T22:16:33.294Z,100.00
2024-02-14T22:21:38.951Z,100.00
2024-02-14T22:26:42.836Z,100.00
2024-02-14T22:31:46.542Z,100.00
2024-02-14T22:36:51.548Z,100.00
2024-02-14T22:41:55.106Z,100.00
2024-02-14T22:47:02.196Z,100.00
2024-02-14T22:52:08.156Z,100.00
2024-02-14T22:57:11.870Z,100.00
2024-02-14T23:02:15.678Z,100.00
2024-02-14T23:07:20.796Z,100.00
2024-02-14T23:12:24.704Z,100.00
2024-02-14T23:17:28.426Z,100.00
2024-02-14T23:22:33.784Z,100.00
2024-02-14T23:27:37.584Z,100.00
2024-02-14T23:32:41.595Z,100.00
2024-02-14T23:37:47.689Z,100.00
2024-02-14T23:42:52.262Z,100.00
2024-02-14T23:47:56.235Z,100.00
2024-02-14T23:53:01.414Z,100.00
2024-02-14T23:58:05.403Z,100.00
